sensor_id;sensor_type;location;lat;lon;timestamp;pressure;altitude;pressure_sealevel;temperature;humidity
48154;BME280;33942;49.272;14.452;2022-10-16T11:07:16;97427.53;;;21.66;96.62
48154;BME280;33942;49.272;14.452;2022-10-16T11:09:47;97422.77;;;24.48;81.00
48154;BME280;33942;49.272;14.452;2022-10-16T11:12:18;97420.65;;;26.27;71.57
48154;BME280;33942;49.272;14.452;2022-10-16T11:14:50;97418.57;;;27.28;69.89
48154;BME280;33942;49.272;14.452;2022-10-16T11:17:25;97416.58;;;27.40;69.65
48154;BME280;33942;49.272;14.452;2022-10-16T11:20:00;97414.32;;;27.74;64.52
48154;BME280;33942;49.272;14.452;2022-10-16T11:22:34;97406.91;;;28.44;59.33
48154;BME280;33942;49.272;14.452;2022-10-16T11:25:13;97405.70;;;28.59;57.88
48154;BME280;33942;49.272;14.452;2022-10-16T11:27:49;97406.98;;;28.99;58.31
48154;BME280;33942;49.272;14.452;2022-10-16T11:30:20;97405.23;;;29.23;55.59
48154;BME280;33942;49.272;14.452;2022-10-16T11:33:03;97401.16;;;29.22;54.74
48154;BME280;33942;49.272;14.452;2022-10-16T11:35:39;97401.13;;;29.53;51.48
48154;BME280;33942;49.272;14.452;2022-10-16T11:38:14;97401.55;;;30.04;50.39
48154;BME280;33942;49.272;14.452;2022-10-16T11:40:47;97400.99;;;29.77;48.62
48154;BME280;33942;49.272;14.452;2022-10-16T11:43:24;97402.11;;;30.21;49.02
48154;BME280;33942;49.272;14.452;2022-10-16T11:45:55;97400.40;;;30.34;47.09
48154;BME280;33942;49.272;14.452;2022-10-16T11:48:30;97403.42;;;30.26;45.85
48154;BME280;33942;49.272;14.452;2022-10-16T11:51:05;97405.84;;;30.57;46.35
48154;BME280;33942;49.272;14.452;2022-10-16T11:53:45;97411.22;;;30.47;45.51
48154;BME280;33942;49.272;14.452;2022-10-16T11:56:13;97408.83;;;30.65;45.89
48154;BME280;33942;49.272;14.452;2022-10-16T11:58:52;97411.32;;;30.74;45.00
48154;BME280;33942;49.272;14.452;2022-10-16T12:01:25;97408.28;;;31.31;44.81
48154;BME280;33942;49.272;14.452;2022-10-16T12:04:01;97408.52;;;31.40;44.93
48154;BME280;33942;49.272;14.452;2022-10-16T12:06:34;97404.04;;;31.52;42.56
48154;BME280;33942;49.272;14.452;2022-10-16T12:08:14;97400.23;;;31.21;43.75
48154;BME280;33942;49.272;14.452;2022-10-16T12:10:44;97399.54;;;31.65;44.57
48154;BME280;33942;49.272;14.452;2022-10-16T12:13:44;97395.42;;;31.70;43.85
48154;BME280;33942;49.272;14.452;2022-10-16T12:16:28;97395.69;;;31.18;41.64
48154;BME280;33942;49.272;14.452;2022-10-16T12:19:13;97393.80;;;31.20;43.26
48154;BME280;33942;49.272;14.452;2022-10-16T12:21:41;97390.08;;;31.45;44.59
48154;BME280;33942;49.272;14.452;2022-10-16T12:24:22;97386.08;;;31.97;43.67
48154;BME280;33942;49.272;14.452;2022-10-16T12:26:54;97383.64;;;32.25;44.43
48154;BME280;33942;49.272;14.452;2022-10-16T12:29:32;97382.52;;;32.40;43.62
48154;BME280;33942;49.272;14.452;2022-10-16T12:32:00;97385.19;;;31.89;42.80
48154;BME280;33942;49.272;14.452;2022-10-16T12:34:29;97386.45;;;31.82;42.07
48154;BME280;33942;49.272;14.452;2022-10-16T12:37:10;97391.61;;;31.32;41.96
48154;BME280;33942;49.272;14.452;2022-10-16T12:39:39;97389.22;;;30.90;41.43
48154;BME280;33942;49.272;14.452;2022-10-16T12:42:22;97392.95;;;30.61;42.29
48154;BME280;33942;49.272;14.452;2022-10-16T12:44:49;97394.39;;;30.36;43.51
48154;BME280;33942;49.272;14.452;2022-10-16T12:47:22;97390.33;;;30.53;44.59
48154;BME280;33942;49.272;14.452;2022-10-16T12:49:52;97391.78;;;30.66;44.95
48154;BME280;33942;49.272;14.452;2022-10-16T12:52:34;97388.91;;;30.80;44.99
